Ebeye, MH

11:52 PM MHT on July 11, 2014 (GMT +1200)
Saipan International (PGSN) Elev 213 ft | 15.12 °N, 145.73 °E | Change Station

Current weather conditions updated 37 minutes ago

Mostly Cloudy
Mostly Cloudy
81 °F
Feels Like 87 °F
N
7
Wind Variable Wind from NE

Tomorrow is forecast to be Cooler than today. Thunderstorms.

Today
High -- | Low -- °F
--% Chance of Precip.
Yesterday
High -- | Low -- °F
Precip. -- in
6:25 AM 6:56 PM
Waxing Gibbous, 99% visible
Pressure 29.85 in
Visibility 10.0 miles
Clouds Few 2200 ft
Scattered Clouds 7500 ft
Mostly Cloudy 8500 ft
Heat Index 87 °F
Dew Point 77 °F
Humidity 89%
Rainfall 0.04 in
Snow Depth Not available.
UV 0 out of 12
Pollen Not available.
Air Quality Not available.
Flu Activity
SPECI PGSN 111115Z 05006KT 10SM FEW022 SCT075 BKN085 27/25 A2985 RMK AO2 RAE09 P0000

More Conditions Fewer Conditions

Pressure 29.85 in
Visibility 10.0 miles
Clouds Few 2200 ft
Scattered Clouds 7500 ft
Mostly Cloudy 8500 ft
Heat Index 87 °F
Dew Point 77 °F
Humidity 89%
Rainfall 0.04 in
Snow Depth Not available.
UV 0 out of 12
Pollen Not available.
Air Quality Not available.
Flu Activity
SPECI PGSN 111115Z 05006KT 10SM FEW022 SCT075 BKN085 27/25 A2985 RMK AO2 RAE09 P0000

More Conditions Fewer Conditions

10-Day Weather Forecast

Almanac

Astronomy

Jul. 11, 2014 Rise Set
Actual Time 6:25 AM MHT 6:56 PM MHT
Civil Twilight 6:03 AM MHT 7:19 PM MHT
Nautical Twilight 5:36 AM MHT 7:45 PM MHT
Astronomical Twilight 5:10 AM MHT 8:12 PM MHT
Moon 5:35 PM MHT 4:43 AM MHT
Length of Visible Light 13h 15m
Length of Day
12h 30m
Tomorrow will be 0m 10s shorter.
Waxing Gibbous, 99% of the Moon is Illuminated
Today
Waxing Gibbous
Jul 12
Full
Jul 18
Last Quarter
Jul 26
New
Aug 3
First Quarter

Community

WunderPhotos

Upload Photos

1,732,429 photos uploaded!

WunderBlogs® & News

Nearby

Snow Depth

Station Depth Elevation
No new snow has been reported.

Earthquake Activity

City Distance Mag. Time & Date
No recent earthquake activity has been reported nearby.
Minimum magnitude displayed is 2.5.

Coastal Water Temperatures

Place Temperature
No Stations Reporting

Nearby Weather Stations

There are no personal weather stations in this area.